Time;durP1;ratioP1;P1;durP2;ratioP2;P2;SDS_P1;SDS_P2;PMS_P1;PMS_P2;Temp;Humidity;BMP_temperature;BMP_pressure;BME280_temperature;BME280_humidity;BME280_pressure;Samples;Min_cycle;Max_cycle;Signal;HPM_P1;HPM_P2
2022/11/20 00:00:54;;;;;;;28.63;17.40;;;;;;;-3.39;100.00;95650.28;4970837;28;20824;-72
2022/11/20 00:03:21;;;;;;;27.17;17.93;;;;;;;-2.81;100.00;95733.63;4954911;28;20429;-71
2022/11/20 00:05:48;;;;;;;20.50;16.90;;;;;;;-2.96;100.00;95697.41;4978155;28;20518;-72
2022/11/20 00:08:14;;;;;;;27.10;16.10;;;;;;;-2.64;100.00;95741.19;5006426;28;20464;-72
2022/11/20 00:10:41;;;;;;;26.20;16.83;;;;;;;-2.60;100.00;95749.97;4991290;28;20464;-72
2022/11/20 00:13:08;;;;;;;23.00;15.23;;;;;;;-2.82;100.00;95729.50;4989902;28;20520;-71
2022/11/20 00:15:35;;;;;;;21.60;16.30;;;;;;;-2.88;100.00;95722.00;4992277;28;20454;-70
2022/11/20 00:18:01;;;;;;;26.20;16.60;;;;;;;-2.72;100.00;95736.50;4993596;28;20476;-70
2022/11/20 00:20:28;;;;;;;23.47;16.70;;;;;;;-2.86;100.00;95714.75;4977597;28;20447;-71
2022/11/20 00:22:55;;;;;;;22.97;16.07;;;;;;;-2.79;100.00;95731.59;4992311;28;20888;-70
2022/11/20 00:25:21;;;;;;;24.83;17.37;;;;;;;-2.79;100.00;95734.19;4974165;28;20532;-70
2022/11/20 00:27:48;;;;;;;22.20;16.13;;;;;;;-2.76;100.00;95730.31;4973913;28;20601;-71
2022/11/20 00:30:15;;;;;;;23.37;16.53;;;;;;;-2.78;100.00;95727.19;4975306;28;20460;-71
2022/11/20 00:32:41;;;;;;;24.53;16.10;;;;;;;-2.93;100.00;95711.66;4976944;28;20960;-70
2022/11/20 00:35:08;;;;;;;23.70;16.93;;;;;;;-2.92;100.00;95705.44;4993934;28;20478;-71
2022/11/20 00:37:35;;;;;;;23.27;14.87;;;;;;;-2.77;100.00;95731.34;4992931;28;20464;-70
2022/11/20 00:40:02;;;;;;;21.40;15.00;;;;;;;-2.69;100.00;95736.00;4993514;28;20443;-70
2022/11/20 00:42:28;;;;;;;25.60;14.50;;;;;;;-2.79;100.00;95728.22;4991423;28;20506;-71
2022/11/20 00:44:55;;;;;;;20.50;15.97;;;;;;;-2.71;100.00;95738.84;4989919;28;20547;-70
2022/11/20 00:47:22;;;;;;;21.63;15.27;;;;;;;-2.90;100.00;95737.78;4973374;28;20891;-71
2022/11/20 00:49:48;;;;;;;24.50;15.23;;;;;;;-3.02;100.00;95704.38;4973873;28;20973;-71
2022/11/20 00:52:15;;;;;;;24.87;15.27;;;;;;;-2.72;100.00;95749.44;4974735;28;20476;-70
2022/11/20 00:54:42;;;;;;;28.80;16.13;;;;;;;-2.89;100.00;95717.88;4989287;28;20552;-70
2022/11/20 00:57:08;;;;;;;25.63;16.60;;;;;;;-2.57;100.00;95751.28;4973755;28;20540;-71
2022/11/20 00:59:35;;;;;;;24.63;18.10;;;;;;;-2.69;100.00;95731.59;4973465;28;20480;-70
2022/11/20 01:02:01;;;;;;;22.60;15.43;;;;;;;-2.71;100.00;95736.25;4973863;28;20448;-70
2022/11/20 01:04:28;;;;;;;28.87;18.33;;;;;;;-2.81;100.00;95738.81;4982622;28;20471;-71
2022/11/20 01:06:55;;;;;;;19.13;15.00;;;;;;;-2.75;100.00;95745.56;4976501;28;20782;-70
2022/11/20 01:09:22;;;;;;;22.90;15.53;;;;;;;-2.72;100.00;95762.38;4992632;28;20538;-70
2022/11/20 01:11:49;;;;;;;28.30;18.17;;;;;;;-2.88;100.00;95732.34;4992973;28;20453;-70
2022/11/20 01:14:18;;;;;;;39.53;21.97;;;;;;;-2.64;100.00;95759.28;4974394;28;20437;-71
2022/11/20 01:16:48;;;;;;;28.90;18.93;;;;;;;-2.61;100.00;95760.59;4973911;28;20499;-71
2022/11/20 01:19:22;;;;;;;24.57;17.40;;;;;;;-2.86;100.00;95710.38;4989099;28;20497;-70
2022/11/20 01:21:52;;;;;;;24.17;15.37;;;;;;;-2.55;100.00;95759.53;4972795;28;20437;-68
2022/11/20 01:24:19;;;;;;;22.40;15.40;;;;;;;-2.54;100.00;95746.34;4972502;28;20520;-69
2022/11/20 01:26:51;;;;;;;24.20;16.03;;;;;;;-2.60;100.00;95749.19;4971595;28;20448;-69
2022/11/20 01:29:22;;;;;;;25.07;17.30;;;;;;;-2.60;100.00;95754.38;4988145;28;20552;-69
2022/11/20 01:31:51;;;;;;;25.23;16.73;;;;;;;-2.57;100.00;95766.78;4972446;28;21000;-68
2022/11/20 01:34:19;;;;;;;24.87;14.90;;;;;;;-2.78;100.00;95730.56;4986804;28;20433;-69
2022/11/20 01:36:46;;;;;;;25.90;15.90;;;;;;;-2.56;100.00;95768.34;4965237;28;20944;-68
2022/11/20 01:39:26;;;;;;;25.20;15.63;;;;;;;-2.76;100.00;95741.41;4991923;28;20518;-68
2022/11/20 01:44:45;;;;;;;20.20;13.27;;;;;;;-2.58;100.00;95755.66;4992044;28;20486;-68
2022/11/20 01:47:16;;;;;;;20.27;14.70;;;;;;;-2.64;100.00;95741.19;4978372;28;20428;-68
2022/11/20 01:49:50;;;;;;;29.10;15.27;;;;;;;-2.63;100.00;95740.16;4972192;28;20475;-69
2022/11/20 01:52:48;;;;;;;25.83;15.67;;;;;;;-2.68;100.00;95748.66;4972418;28;20964;-68
2022/11/20 01:55:21;;;;;;;24.90;17.43;;;;;;;-2.58;100.00;95745.31;4971580;28;20535;-68
2022/11/20 01:57:48;;;;;;;27.20;16.87;;;;;;;-2.53;100.00;95757.50;4972069;28;20471;-69
2022/11/20 02:00:18;;;;;;;21.00;16.03;;;;;;;-2.51;100.00;95758.78;4972119;28;20436;-69
2022/11/20 02:03:00;;;;;;;22.73;13.43;;;;;;;-2.73;100.00;95719.44;4981446;28;20440;-69
2022/11/20 02:05:51;;;;;;;24.33;15.70;;;;;;;-2.62;100.00;95746.09;4991239;28;20527;-68
2022/11/20 02:08:19;;;;;;;21.27;13.80;;;;;;;-2.63;100.00;95739.38;4991448;28;20564;-68
2022/11/20 02:10:46;;;;;;;25.87;16.63;;;;;;;-2.76;100.00;95725.13;4991303;28;20551;-69
2022/11/20 02:15:58;;;;;;;22.13;15.37;;;;;;;-2.61;100.00;95771.72;4991213;28;20572;-69
2022/11/20 02:18:25;;;;;;;24.43;14.37;;;;;;;-2.58;100.00;95766.03;4992492;28;20501;-68
2022/11/20 02:21:24;;;;;;;24.53;17.73;;;;;;;-2.59;100.00;95759.28;4991140;28;20479;-69
2022/11/20 02:23:54;;;;;;;26.10;16.57;;;;;;;-2.66;100.00;95766.53;4975145;28;20799;-68
2022/11/20 02:26:22;;;;;;;24.80;15.80;;;;;;;-2.60;100.00;95762.91;4982814;28;20443;-71
2022/11/20 02:28:50;;;;;;;25.83;17.17;;;;;;;-2.59;100.00;95743.00;4987184;28;20567;-68
2022/11/20 02:31:16;;;;;;;28.23;15.53;;;;;;;-2.56;100.00;95743.25;4988290;28;20846;-68
2022/11/20 02:33:43;;;;;;;23.57;15.70;;;;;;;-2.70;100.00;95708.56;4978588;28;20448;-68
2022/11/20 02:36:14;;;;;;;25.67;16.50;;;;;;;-2.60;100.00;95695.66;4984895;28;20440;-69
2022/11/20 02:38:42;;;;;;;23.43;15.77;;;;;;;-2.51;100.00;95703.69;4982824;28;20498;-69
2022/11/20 02:41:09;;;;;;;23.53;15.97;;;;;;;-2.46;100.00;95701.09;4957159;28;20436;-69
2022/11/20 02:43:36;;;;;;;27.43;17.47;;;;;;;-2.38;100.00;95716.88;4955940;28;20861;-69
2022/11/20 02:46:03;;;;;;;23.10;15.43;;;;;;;-2.37;100.00;95720.25;4972052;28;20523;-69
2022/11/20 02:48:29;;;;;;;21.13;15.43;;;;;;;-2.68;100.00;95696.94;4971296;28;20507;-70
2022/11/20 02:50:59;;;;;;;24.77;15.50;;;;;;;-2.62;100.00;95728.75;4971513;28;20469;-69
2022/11/20 02:53:26;;;;;;;24.10;15.70;;;;;;;-2.67;100.00;95700.31;4971628;28;20452;-69
2022/11/20 02:55:53;;;;;;;26.07;15.40;;;;;;;-2.64;100.00;95707.56;4977137;28;20534;-69
2022/11/20 02:58:20;;;;;;;27.10;17.40;;;;;;;-2.51;100.00;95732.16;4991837;28;20550;-69
2022/11/20 03:00:46;;;;;;;22.83;14.90;;;;;;;-2.55;100.00;95729.28;5006538;28;20490;-70
2022/11/20 03:03:13;;;;;;;21.07;14.20;;;;;;;-2.69;100.00;95699.78;4961793;28;20918;-70
2022/11/20 03:05:39;;;;;;;23.67;16.23;;;;;;;-2.59;100.00;95707.56;4970728;28;20433;-70
2022/11/20 03:08:06;;;;;;;27.03;14.23;;;;;;;-2.44;100.00;95723.06;4970627;28;20555;-70
2022/11/20 03:10:33;;;;;;;24.20;16.57;;;;;;;-2.57;100.00;95705.47;4970542;28;20492;-70
2022/11/20 03:12:59;;;;;;;21.13;14.40;;;;;;;-2.40;100.00;95723.34;4983555;28;20447;-71
2022/11/20 03:15:26;;;;;;;23.10;16.37;;;;;;;-2.37;100.00;95709.91;4970707;28;20452;-70
2022/11/20 03:17:55;;;;;;;24.43;16.60;;;;;;;-2.38;100.00;95711.72;4970887;28;20579;-70
2022/11/20 03:20:22;;;;;;;22.83;15.47;;;;;;;-2.28;100.00;95721.25;4990064;28;20420;-70
2022/11/20 03:22:49;;;;;;;23.30;14.67;;;;;;;-2.40;100.00;95703.44;4977836;28;21007;-70
2022/11/20 03:25:16;;;;;;;21.47;14.53;;;;;;;-2.31;100.00;95721.00;4970681;28;20447;-70
2022/11/20 03:27:42;;;;;;;22.37;15.77;;;;;;;-2.22;100.00;95714.28;4970509;28;20475;-69
2022/11/20 03:30:09;;;;;;;23.80;16.47;;;;;;;-2.07;100.00;95709.09;4972216;28;21059;-71
2022/11/20 03:32:36;;;;;;;21.07;16.60;;;;;;;-2.31;100.00;95690.72;4970500;28;20960;-71
2022/11/20 03:35:03;;;;;;;22.90;15.90;;;;;;;-2.50;100.00;95662.03;4970536;28;20433;-71
2022/11/20 03:37:29;;;;;;;24.23;15.53;;;;;;;-2.35;100.00;95683.75;4971689;28;20441;-71
2022/11/20 03:39:56;;;;;;;26.23;18.40;;;;;;;-2.11;100.00;95733.97;4989934;28;20447;-71
2022/11/20 03:45:08;;;;;;;25.93;18.23;;;;;;;-2.31;100.00;95732.13;4970894;28;20451;-71
2022/11/20 03:47:35;;;;;;;26.20;18.13;;;;;;;-2.32;100.00;95725.41;4970309;28;20486;-71
2022/11/20 03:50:02;;;;;;;30.43;15.57;;;;;;;-2.41;100.00;95719.97;4965529;28;20571;-71
2022/11/20 03:52:28;;;;;;;25.43;17.30;;;;;;;-2.53;100.00;95698.78;4988803;28;20449;-72
2022/11/20 03:54:55;;;;;;;26.43;16.43;;;;;;;-2.52;100.00;95691.78;4974251;28;20427;-71
2022/11/20 03:57:22;;;;;;;26.07;17.87;;;;;;;-2.41;100.00;95701.84;4974444;28;20447;-71
2022/11/20 03:59:48;;;;;;;22.03;15.03;;;;;;;-2.58;100.00;95662.53;4974066;28;20536;-72
2022/11/20 04:02:15;;;;;;;24.20;16.40;;;;;;;-2.35;100.00;95699.28;4973912;28;20528;-72
2022/11/20 04:04:41;;;;;;;27.43;17.50;;;;;;;-2.63;100.00;95667.72;4973896;28;20551;-72
2022/11/20 04:07:08;;;;;;;23.60;15.60;;;;;;;-2.46;100.00;95680.38;4973646;28;20785;-71
2022/11/20 04:09:35;;;;;;;26.07;15.63;;;;;;;-2.37;100.00;95686.59;4973822;28;20828;-71
2022/11/20 04:12:02;;;;;;;25.17;16.43;;;;;;;-2.72;100.00;95664.84;4989702;28;20575;-71
2022/11/20 04:14:28;;;;;;;29.10;16.90;;;;;;;-2.52;100.00;95694.38;4973654;28;20452;-71
2022/11/20 04:16:55;;;;;;;27.90;17.80;;;;;;;-2.47;100.00;95697.72;4971015;28;20440;-71
2022/11/20 04:19:21;;;;;;;26.30;16.13;;;;;;;-2.83;100.00;95660.72;4974835;28;20448;-71
2022/11/20 04:21:49;;;;;;;22.00;14.57;;;;;;;-2.54;100.00;95701.59;4991874;28;20509;-72
2022/11/20 04:24:15;;;;;;;23.33;16.33;;;;;;;-2.52;100.00;95697.72;4977071;28;20479;-71
2022/11/20 04:26:42;;;;;;;25.27;16.03;;;;;;;-2.44;100.00;95707.56;4955280;28;20836;-71
2022/11/20 04:29:11;;;;;;;24.03;15.73;;;;;;;-2.54;100.00;95681.66;4968238;28;20448;-72
2022/11/20 04:31:38;;;;;;;24.93;16.80;;;;;;;-2.28;100.00;95689.44;4986036;28;20469;-71
2022/11/20 04:34:06;;;;;;;29.67;18.17;;;;;;;-2.27;100.00;95688.38;4986345;28;20881;-71
2022/11/20 04:36:33;;;;;;;21.63;15.37;;;;;;;-2.44;100.00;95699.78;4992755;28;20436;-71
2022/11/20 04:39:03;;;;;;;27.73;16.47;;;;;;;-2.38;100.00;95691.00;4993775;28;20547;-71
2022/11/20 04:41:32;;;;;;;27.97;17.23;;;;;;;-2.32;100.00;95691.78;4993997;28;20864;-72
2022/11/20 04:44:04;;;;;;;26.60;16.83;;;;;;;-2.31;100.00;95689.94;4992592;28;20435;-71
2022/11/20 04:46:39;;;;;;;23.93;15.00;;;;;;;-2.28;100.00;95700.56;4992572;28;20447;-72
2022/11/20 04:49:07;;;;;;;25.40;17.17;;;;;;;-2.35;100.00;95694.88;4976343;28;20459;-71
2022/11/20 04:51:34;;;;;;;25.27;17.00;;;;;;;-2.38;100.00;95691.00;4972848;28;20479;-72
2022/11/20 04:54:01;;;;;;;25.83;16.23;;;;;;;-2.45;100.00;95679.34;4975196;28;20425;-71
2022/11/20 04:56:28;;;;;;;24.37;17.20;;;;;;;-2.44;100.00;95673.91;4974306;28;21002;-72
2022/11/20 04:58:55;;;;;;;24.27;14.57;;;;;;;-2.70;100.00;95659.41;4974717;28;20454;-71
2022/11/20 05:01:24;;;;;;;26.53;15.77;;;;;;;-2.48;100.00;95678.06;4972630;28;20451;-71
2022/11/20 05:03:51;;;;;;;27.97;18.67;;;;;;;-2.49;100.00;95673.16;4972031;28;20444;-71
2022/11/20 05:06:20;;;;;;;28.73;19.43;;;;;;;-2.61;100.00;95652.72;4985311;28;20445;-71
2022/11/20 05:08:47;;;;;;;25.50;16.93;;;;;;;-2.83;100.00;95624.50;4991884;28;20455;-71
2022/11/20 05:11:17;;;;;;;30.00;19.20;;;;;;;-2.53;100.00;95665.13;4991881;28;20472;-71
2022/11/20 05:13:44;;;;;;;26.67;17.20;;;;;;;-2.75;100.00;95643.91;4991976;28;20444;-72
2022/11/20 05:16:13;;;;;;;23.13;15.70;;;;;;;-2.46;100.00;95668.22;4993223;28;20437;-71
2022/11/20 05:18:41;;;;;;;29.60;18.10;;;;;;;-2.65;100.00;95640.56;4993180;28;20776;-71
2022/11/20 05:21:09;;;;;;;30.13;19.60;;;;;;;-2.46;100.00;95662.28;4990947;28;20443;-71
2022/11/20 05:23:36;;;;;;;26.20;17.40;;;;;;;-2.41;100.00;95654.50;4972523;28;20472;-72
2022/11/20 05:26:04;;;;;;;28.27;17.07;;;;;;;-2.33;100.00;95669.50;4972687;28;20433;-71
2022/11/20 05:28:32;;;;;;;26.07;16.53;;;;;;;-2.36;100.00;95682.22;4964015;28;20802;-71
2022/11/20 05:31:13;;;;;;;29.93;17.40;;;;;;;-2.36;100.00;95677.81;4991610;28;20475;-72
2022/11/20 05:33:42;;;;;;;24.80;17.57;;;;;;;-2.50;100.00;95656.84;4991556;28;20897;-71
2022/11/20 05:36:09;;;;;;;25.10;16.10;;;;;;;-2.67;100.00;95646.00;4991442;28;20445;-72
2022/11/20 05:38:36;;;;;;;28.60;18.23;;;;;;;-2.48;100.00;95675.47;4991334;28;20456;-71
2022/11/20 05:41:21;;;;;;;30.97;19.93;;;;;;;-2.45;100.00;95676.75;4992960;28;20432;-71
2022/11/20 05:43:49;;;;;;;25.60;15.50;;;;;;;-2.59;100.00;95655.03;4991594;28;20500;-72
2022/11/20 05:46:18;;;;;;;26.57;15.77;;;;;;;-2.45;100.00;95669.00;4975487;28;20451;-71
2022/11/20 05:48:53;;;;;;;28.70;17.13;;;;;;;-2.58;100.00;95647.00;4992420;28;20454;-71
2022/11/20 05:51:20;;;;;;;25.60;19.10;;;;;;;-2.53;100.00;95643.66;4966385;28;20472;-71
2022/11/20 05:53:47;;;;;;;25.80;17.40;;;;;;;-2.48;100.00;95662.53;4973854;28;20516;-71
2022/11/20 05:56:19;;;;;;;25.90;16.70;;;;;;;-2.48;100.00;95666.94;4982502;28;20448;-72
2022/11/20 05:58:47;;;;;;;31.73;19.30;;;;;;;-2.69;100.00;95633.28;4971824;28;20479;-71
2022/11/20 06:01:22;;;;;;;25.67;16.90;;;;;;;-2.55;100.00;95659.41;4972171;28;20536;-72
2022/11/20 06:03:50;;;;;;;31.27;20.20;;;;;;;-2.78;100.00;95611.59;4977350;28;20439;-72
2022/11/20 06:06:18;;;;;;;32.27;20.10;;;;;;;-2.42;100.00;95658.91;4992356;28;20439;-71
2022/11/20 06:08:45;;;;;;;26.33;17.60;;;;;;;-2.41;100.00;95651.91;4992187;28;20459;-69
2022/11/20 06:11:13;;;;;;;31.20;19.27;;;;;;;-2.32;100.00;95660.72;4979009;28;20472;-69
2022/11/20 06:13:40;;;;;;;29.27;17.10;;;;;;;-2.30;100.00;95656.03;4976665;28;20440;-69
2022/11/20 06:16:09;;;;;;;29.83;18.80;;;;;;;-2.43;100.00;95625.53;4992247;28;20519;-69
2022/11/20 06:18:36;;;;;;;30.00;20.07;;;;;;;-2.34;100.00;95655.03;4990961;28;20530;-69
2022/11/20 06:21:07;;;;;;;25.23;17.17;;;;;;;-2.28;100.00;95650.59;4994248;28;20437;-69
2022/11/20 06:23:35;;;;;;;28.93;19.30;;;;;;;-2.34;100.00;95643.91;4959110;28;20527;-69
2022/11/20 06:26:08;;;;;;;24.80;18.43;;;;;;;-2.27;100.00;95639.22;4971117;28;20436;-69
2022/11/20 06:28:35;;;;;;;26.57;17.87;;;;;;;-2.26;100.00;95640.78;4971281;28;20487;-69
2022/11/20 06:31:03;;;;;;;28.53;16.80;;;;;;;-2.41;100.00;95621.63;4972990;28;20483;-69
2022/11/20 06:33:30;;;;;;;29.10;18.07;;;;;;;-2.24;100.00;95649.84;4990542;28;20448;-69
2022/11/20 06:35:58;;;;;;;31.90;20.73;;;;;;;-2.20;100.00;95658.63;4991763;28;20443;-69
2022/11/20 06:38:29;;;;;;;25.47;17.20;;;;;;;-2.30;100.00;95640.50;4990679;28;20464;-69
2022/11/20 06:40:56;;;;;;;29.03;18.63;;;;;;;-2.12;100.00;95659.91;4974745;28;20448;-69
2022/11/20 06:43:24;;;;;;;26.93;17.23;;;;;;;-2.16;100.00;95657.06;4980863;28;20429;-69
2022/11/20 06:45:54;;;;;;;27.80;17.13;;;;;;;-2.28;100.00;95642.84;4987288;28;20823;-69
2022/11/20 06:48:22;;;;;;;25.23;17.07;;;;;;;-2.38;100.00;95633.28;4955019;28;20453;-69
2022/11/20 06:50:49;;;;;;;31.73;18.67;;;;;;;-2.30;100.00;95644.91;4970957;28;20458;-70
2022/11/20 06:53:15;;;;;;;27.30;17.63;;;;;;;-2.34;100.00;95644.66;4971004;28;20916;-69
2022/11/20 06:55:44;;;;;;;27.00;17.27;;;;;;;-2.31;100.00;95664.84;4970885;28;20443;-69
2022/11/20 06:58:15;;;;;;;28.17;18.37;;;;;;;-2.31;100.00;95651.91;4970981;28;20556;-69
2022/11/20 07:00:42;;;;;;;30.73;21.07;;;;;;;-2.32;100.00;95647.78;4983765;28;20453;-70
2022/11/20 07:03:10;;;;;;;30.60;18.50;;;;;;;-2.15;100.00;95665.59;4982834;28;20444;-70
2022/11/20 07:05:38;;;;;;;23.80;17.10;;;;;;;-2.09;100.00;95673.09;4972573;28;20490;-69
2022/11/20 07:08:05;;;;;;;29.20;16.97;;;;;;;-2.15;100.00;95655.25;4971985;28;20459;-69
2022/11/20 07:10:32;;;;;;;32.60;18.87;;;;;;;-1.96;100.00;95658.06;4954855;28;20451;-69
2022/11/20 07:12:59;;;;;;;25.57;18.93;;;;;;;-1.92;100.00;95675.41;4971044;28;20465;-69
2022/11/20 07:15:25;;;;;;;27.17;18.00;;;;;;;-2.01;100.00;95673.59;4971104;28;20441;-69
2022/11/20 07:17:52;;;;;;;33.87;22.00;;;;;;;-2.11;100.00;95640.75;4970927;28;20465;-69
2022/11/20 07:20:19;;;;;;;30.77;18.47;;;;;;;-2.00;100.00;95670.78;4971086;28;20445;-70
2022/11/20 07:22:45;;;;;;;36.57;18.03;;;;;;;-1.99;100.00;95684.50;4971221;28;20529;-69
2022/11/20 07:25:12;;;;;;;26.27;17.57;;;;;;;-2.17;100.00;95663.28;4971485;28;20445;-69
2022/11/20 07:27:39;;;;;;;22.97;15.33;;;;;;;-2.04;100.00;95680.09;4974975;28;20499;-70
2022/11/20 07:30:06;;;;;;;38.90;18.03;;;;;;;-1.99;100.00;95681.91;4974989;28;20432;-72
2022/11/20 07:32:33;;;;;;;35.77;18.63;;;;;;;-2.09;100.00;95665.34;4991627;28;20480;-72
2022/11/20 07:34:59;;;;;;;32.33;20.97;;;;;;;-1.99;100.00;95681.91;4994134;28;20463;-72
2022/11/20 07:37:26;;;;;;;32.13;19.50;;;;;;;-1.99;100.00;95684.50;4981016;28;20441;-71
2022/11/20 07:39:53;;;;;;;33.23;18.73;;;;;;;-2.24;100.00;95638.72;4994231;28;20443;-72
2022/11/20 07:42:19;;;;;;;32.33;19.30;;;;;;;-2.03;100.00;95662.72;4980185;28;20425;-72
2022/11/20 07:44:49;;;;;;;30.03;17.67;;;;;;;-2.12;100.00;95642.56;4982704;28;20440;-72
2022/11/20 07:47:15;;;;;;;28.50;17.50;;;;;;;-1.91;100.00;95665.81;4979998;28;20535;-72
2022/11/20 07:49:42;;;;;;;29.20;19.43;;;;;;;-1.99;100.00;95674.91;4975961;28;20432;-72
2022/11/20 07:52:09;;;;;;;26.23;18.47;;;;;;;-2.15;100.00;95648.25;4971369;28;20466;-72
2022/11/20 07:54:35;;;;;;;29.50;19.67;;;;;;;-2.11;100.00;95638.16;4974535;28;20443;-71
2022/11/20 07:57:02;;;;;;;29.87;19.63;;;;;;;-1.96;100.00;95665.84;4987408;28;20479;-71
2022/11/20 07:59:29;;;;;;;28.60;18.20;;;;;;;-2.13;100.00;95648.78;4991218;28;20475;-72
2022/11/20 08:01:55;;;;;;;31.90;19.60;;;;;;;-2.16;100.00;95649.28;4987773;28;20424;-71
2022/11/20 08:04:23;;;;;;;31.63;18.90;;;;;;;-1.86;100.00;95679.53;4974443;28;20431;-72
2022/11/20 08:06:52;;;;;;;32.50;20.63;;;;;;;-1.79;100.00;95661.13;4976283;28;20437;-72
2022/11/20 08:09:18;;;;;;;27.53;18.70;;;;;;;-1.73;100.00;95675.63;4977791;28;20476;-72
2022/11/20 08:14:31;;;;;;;29.33;19.20;;;;;;;-1.96;100.00;95650.31;4974165;28;20952;-71
2022/11/20 08:16:57;;;;;;;28.80;18.20;;;;;;;-1.86;100.00;95656.22;4974101;28;20436;-72
2022/11/20 08:19:24;;;;;;;29.93;18.97;;;;;;;-1.86;100.00;95658.81;4974281;28;20474;-72
2022/11/20 08:21:50;;;;;;;30.97;20.50;;;;;;;-1.72;100.00;95681.59;4992186;28;20944;-72
2022/11/20 08:24:17;;;;;;;32.60;19.93;;;;;;;-1.92;100.00;95646.91;4982178;28;20437;-72
2022/11/20 08:26:44;;;;;;;30.40;20.10;;;;;;;-2.00;100.00;95624.16;4974101;28;20520;-72
2022/11/20 08:29:11;;;;;;;33.90;20.90;;;;;;;-1.80;100.00;95656.97;4990057;28;20469;-72
2022/11/20 08:31:37;;;;;;;31.30;19.57;;;;;;;-1.85;100.00;95642.25;4990599;28;20973;-71
2022/11/20 08:34:04;;;;;;;32.27;20.10;;;;;;;-1.69;100.00;95655.13;4972341;28;20949;-71
2022/11/20 08:36:35;;;;;;;28.37;20.20;;;;;;;-1.58;100.00;95657.44;4981132;28;20982;-72
2022/11/20 08:39:03;;;;;;;39.30;21.27;;;;;;;-1.67;100.00;95643.47;4977376;28;20467;-72
2022/11/20 08:41:32;;;;;;;30.57;20.60;;;;;;;-1.84;100.00;95614.53;4993805;28;20781;-72
2022/11/20 08:44:01;;;;;;;24.37;17.03;;;;;;;-1.42;100.00;95681.47;4993198;28;20873;-70
2022/11/20 08:46:35;;;;;;;29.97;17.40;;;;;;;-1.31;100.00;95684.78;4993478;28;20416;-69
2022/11/20 08:49:02;;;;;;;30.27;17.83;;;;;;;-1.57;100.00;95669.34;4976623;28;20467;-69
2022/11/20 08:51:29;;;;;;;31.40;19.43;;;;;;;-1.52;100.00;95660.75;4992955;28;20891;-70
2022/11/20 08:53:55;;;;;;;33.33;20.07;;;;;;;-1.28;100.00;95681.66;4993254;28;20443;-70
2022/11/20 08:56:22;;;;;;;31.50;19.30;;;;;;;-1.49;100.00;95655.03;4994219;28;20439;-70
2022/11/20 08:58:51;;;;;;;32.30;19.60;;;;;;;-1.37;100.00;95673.66;4993981;28;20829;-69
2022/11/20 09:01:38;;;;;;;34.37;20.70;;;;;;;-1.28;100.00;95648.72;4992650;28;20443;-70
2022/11/20 09:04:05;;;;;;;35.80;19.87;;;;;;;-1.22;100.00;95672.81;4992852;28;20446;-70
2022/11/20 09:06:32;;;;;;;31.40;18.37;;;;;;;-1.12;100.00;95680.53;4994032;28;20929;-70
2022/11/20 09:08:58;;;;;;;31.63;19.40;;;;;;;-1.05;100.00;95677.66;4976746;28;21154;-71
2022/11/20 09:11:32;;;;;;;33.00;20.17;;;;;;;-1.14;100.00;95663.69;4977022;28;20563;-70
2022/11/20 09:13:59;;;;;;;30.97;19.83;;;;;;;-1.13;100.00;95670.44;4992505;28;20528;-70
2022/11/20 09:16:26;;;;;;;28.90;18.77;;;;;;;-1.29;100.00;95634.22;4977516;28;20433;-70
2022/11/20 09:18:53;;;;;;;30.23;18.70;;;;;;;-1.31;100.00;95625.94;4965312;28;20558;-70
2022/11/20 09:21:39;;;;;;;33.47;21.97;;;;;;;-1.25;100.00;95637.03;4978856;28;20455;-70
2022/11/20 09:24:06;;;;;;;36.70;22.93;;;;;;;-1.02;100.00;95669.34;4992400;28;20436;-71
2022/11/20 09:26:33;;;;;;;30.90;20.17;;;;;;;-1.18;100.00;95639.34;4984849;28;20425;-70
2022/11/20 09:28:59;;;;;;;30.60;20.57;;;;;;;-1.12;100.00;95646.81;4974108;28;20487;-71
2022/11/20 09:31:26;;;;;;;30.93;22.17;;;;;;;-1.14;100.00;95640.38;4992199;28;20443;-70
2022/11/20 09:33:53;;;;;;;37.30;21.23;;;;;;;-1.40;100.00;95619.75;4994887;28;20441;-70
2022/11/20 09:36:20;;;;;;;37.53;23.93;;;;;;;-1.26;100.00;95630.31;4972929;28;20437;-71
2022/11/20 09:38:47;;;;;;;29.83;20.30;;;;;;;-0.95;100.00;95662.78;4972885;28;20491;-71
2022/11/20 09:41:45;;;;;;;30.47;18.57;;;;;;;-0.88;100.00;95667.69;4978595;28;20440;-71
2022/11/20 09:44:34;;;;;;;30.30;18.43;;;;;;;-0.91;100.00;95665.66;4991878;28;20436;-71
2022/11/20 09:47:25;;;;;;;33.40;20.67;;;;;;;-0.72;100.00;95650.97;4975899;28;20451;-71
2022/11/20 09:50:21;;;;;;;34.87;20.50;;;;;;;-0.94;100.00;95619.47;4992606;28;20958;-71
2022/11/20 09:53:19;;;;;;;38.03;26.07;;;;;;;-0.72;100.00;95645.00;4975874;28;20471;-71
2022/11/20 09:55:46;;;;;;;30.63;22.60;;;;;;;-0.81;100.00;95646.63;4992804;28;20795;-71
2022/11/20 09:58:20;;;;;;;36.13;24.43;;;;;;;-0.93;100.00;95631.44;4991474;28;20505;-71
2022/11/20 10:00:48;;;;;;;37.60;22.70;;;;;;;-0.98;100.00;95608.09;4959318;28;20804;-71
2022/11/20 10:03:22;;;;;;;39.27;22.20;;;;;;;-0.68;100.00;95641.59;4972205;28;20425;-71
2022/11/20 10:05:54;;;;;;;40.10;23.27;;;;;;;-0.54;100.00;95635.78;4972237;28;20961;-72
2022/11/20 10:08:25;;;;;;;34.33;22.37;;;;;;;-0.61;100.00;95642.06;4971914;28;20837;-71
2022/11/20 10:11:07;;;;;;;36.27;23.50;;;;;;;-0.64;100.00;95634.06;4981118;28;20920;-71
2022/11/20 10:13:42;;;;;;;33.07;20.73;;;;;;;-0.62;100.00;95624.19;4991456;28;20583;-71
2022/11/20 10:16:16;;;;;;;39.47;23.83;;;;;;;-0.71;100.00;95634.34;4979334;28;20865;-72
2022/11/20 10:19:06;;;;;;;39.20;24.50;;;;;;;-0.86;100.00;95600.75;4971845;28;20543;-71
2022/11/20 10:21:56;;;;;;;40.43;23.30;;;;;;;-0.67;100.00;95635.38;4971959;28;20448;-71
2022/11/20 10:25:04;;;;;;;32.00;20.00;;;;;;;-0.76;100.00;95629.22;4973226;28;20467;-71
2022/11/20 10:27:50;;;;;;;36.60;23.47;;;;;;;-0.83;100.00;95607.22;4971948;28;20472;-73
2022/11/20 10:30:19;;;;;;;37.07;24.93;;;;;;;-0.80;100.00;95624.81;4987885;28;20858;-73
2022/11/20 10:32:57;;;;;;;39.37;24.30;;;;;;;-1.03;100.00;95616.69;4971459;28;20847;-73
2022/11/20 10:35:50;;;;;;;38.73;23.97;;;;;;;-0.85;100.00;95625.63;4971707;28;20439;-74
2022/11/20 10:38:25;;;;;;;41.77;25.77;;;;;;;-0.85;100.00;95623.03;4971607;28;20461;-74
2022/11/20 10:41:40;;;;;;;34.50;22.60;;;;;;;-1.05;100.00;95574.69;4971512;28;20505;-74
2022/11/20 10:43:51;;;;;;;31.57;24.50;;;;;;;-0.76;100.00;95618.06;4991851;28;20451;-74
2022/11/20 10:46:24;;;;;;;41.37;26.17;;;;;;;-0.95;100.00;95579.00;4992352;28;20428;-74
2022/11/20 10:48:51;;;;;;;36.80;23.20;;;;;;;-0.80;100.00;95598.88;4991002;28;20575;-74
2022/11/20 10:51:59;;;;;;;30.93;22.70;;;;;;;-0.63;100.00;95620.03;4975268;28;20491;-74
2022/11/20 10:55:10;;;;;;;37.43;23.80;;;;;;;-0.63;100.00;95615.63;4991406;28;20420;-74
2022/11/20 10:57:56;;;;;;;47.73;26.50;;;;;;;-0.50;100.00;95626.41;4975218;28;20511;-74
2022/11/20 11:00:23;;;;;;;43.90;26.00;;;;;;;-0.78;100.00;95586.44;5007670;28;20458;-75
2022/11/20 11:02:56;;;;;;;42.70;24.30;;;;;;;-0.48;100.00;95621.72;4975298;28;20431;-74
2022/11/20 11:05:50;;;;;;;39.00;24.73;;;;;;;-0.70;100.00;95594.38;4975394;28;20647;-74
2022/11/20 11:08:19;;;;;;;37.37;25.70;;;;;;;-0.58;100.00;95608.81;4975367;28;20456;-74
2022/11/20 11:10:55;;;;;;;38.03;24.43;;;;;;;-0.48;100.00;95611.34;4975189;28;20455;-74
2022/11/20 11:13:28;;;;;;;42.00;23.97;;;;;;;-0.64;100.00;95588.13;4992392;28;20776;-75
2022/11/20 11:15:55;;;;;;;40.17;27.30;;;;;;;-0.40;100.00;95605.53;4991425;28;20944;-75
2022/11/20 11:18:27;;;;;;;33.63;23.63;;;;;;;-0.40;100.00;95606.34;4991331;28;20495;-75
2022/11/20 11:20:55;;;;;;;39.47;25.27;;;;;;;-0.53;100.00;95583.63;4992005;28;20830;-75
2022/11/20 11:23:37;;;;;;;34.40;23.37;;;;;;;-0.37;100.00;95599.81;4994374;28;20425;-75
2022/11/20 11:26:06;;;;;;;32.57;22.50;;;;;;;-0.57;100.00;95561.84;4978941;28;20500;-72
2022/11/20 11:28:34;;;;;;;34.57;23.80;;;;;;;-0.35;100.00;95590.69;4971825;28;20515;-72
2022/11/20 11:31:00;;;;;;;31.43;21.80;;;;;;;-0.27;100.00;95588.53;4955080;28;20459;-72
2022/11/20 11:33:34;;;;;;;28.77;19.67;;;;;;;-0.41;100.00;95562.44;4970861;28;20465;-72